sensor_id;sensor_type;location;lat;lon;timestamp;pressure;altitude;pressure_sealevel;temperature;humidity
7940;BME280;4015;48.888;9.226;2023-04-05T00:02:05;155706.53;;;1.80;69.56
7940;BME280;4015;48.888;9.226;2023-04-05T00:04:31;155726.81;;;1.88;69.21
7940;BME280;4015;48.888;9.226;2023-04-05T00:06:59;155731.94;;;1.90;68.26
7940;BME280;4015;48.888;9.226;2023-04-05T00:09:26;155739.53;;;1.93;69.08
7940;BME280;4015;48.888;9.226;2023-04-05T00:11:52;155733.22;;;1.91;69.18
7940;BME280;4015;48.888;9.226;2023-04-05T00:14:18;155720.50;;;1.85;71.41
7940;BME280;4015;48.888;9.226;2023-04-05T00:16:43;155712.91;;;1.82;71.60
7940;BME280;4015;48.888;9.226;2023-04-05T00:19:09;155710.31;;;1.81;71.26
7940;BME280;4015;48.888;9.226;2023-04-05T00:21:38;155681.13;;;1.70;72.41
7940;BME280;4015;48.888;9.226;2023-04-05T00:24:03;155672.25;;;1.66;71.26
7940;BME280;4015;48.888;9.226;2023-04-05T00:26:29;155696.34;;;1.76;70.82
7940;BME280;4015;48.888;9.226;2023-04-05T00:28:54;155698.94;;;1.77;70.98
7940;BME280;4015;48.888;9.226;2023-04-05T00:31:20;155691.28;;;1.74;71.20
7940;BME280;4015;48.888;9.226;2023-04-05T00:33:45;155688.75;;;1.73;70.56
7940;BME280;4015;48.888;9.226;2023-04-05T00:36:12;155711.59;;;1.82;70.25
7940;BME280;4015;48.888;9.226;2023-04-05T00:38:39;155704.00;;;1.79;69.60
7940;BME280;4015;48.888;9.226;2023-04-05T00:41:05;155716.69;;;1.84;69.50
7940;BME280;4015;48.888;9.226;2023-04-05T00:43:31;155695.09;;;1.75;67.87
7940;BME280;4015;48.888;9.226;2023-04-05T00:45:56;155700.19;;;1.77;69.22
7940;BME280;4015;48.888;9.226;2023-04-05T00:48:22;155673.53;;;1.67;70.47
7940;BME280;4015;48.888;9.226;2023-04-05T00:50:49;155684.97;;;1.71;72.30
7940;BME280;4015;48.888;9.226;2023-04-05T00:53:18;155672.25;;;1.66;72.21
7940;BME280;4015;48.888;9.226;2023-04-05T00:55:47;155655.75;;;1.59;71.05
7940;BME280;4015;48.888;9.226;2023-04-05T00:58:16;155658.28;;;1.60;71.83
7940;BME280;4015;48.888;9.226;2023-04-05T01:03:25;155669.72;;;1.65;69.81
7940;BME280;4015;48.888;9.226;2023-04-05T01:06:07;155690.03;;;1.73;69.33
7940;BME280;4015;48.888;9.226;2023-04-05T01:08:59;155712.91;;;1.82;69.52
7940;BME280;4015;48.888;9.226;2023-04-05T01:11:30;155706.53;;;1.80;69.52
7940;BME280;4015;48.888;9.226;2023-04-05T01:14:01;155697.66;;;1.76;70.09
7940;BME280;4015;48.888;9.226;2023-04-05T01:16:26;155690.03;;;1.73;70.18
7940;BME280;4015;48.888;9.226;2023-04-05T01:18:53;155690.03;;;1.73;69.62
7940;BME280;4015;48.888;9.226;2023-04-05T01:24:40;155617.66;;;1.44;71.00
7940;BME280;4015;48.888;9.226;2023-04-05T01:27:15;155662.09;;;1.62;69.89
7940;BME280;4015;48.888;9.226;2023-04-05T01:29:49;155682.44;;;1.70;70.14
7940;BME280;4015;48.888;9.226;2023-04-05T01:32:38;155659.56;;;1.61;70.00
7940;BME280;4015;48.888;9.226;2023-04-05T01:35:32;155617.66;;;1.44;69.65
7940;BME280;4015;48.888;9.226;2023-04-05T01:37:59;155579.59;;;1.29;70.32
7940;BME280;4015;48.888;9.226;2023-04-05T01:40:26;155564.34;;;1.23;69.83
7940;BME280;4015;48.888;9.226;2023-04-05T01:42:52;155582.13;;;1.30;70.05
7940;BME280;4015;48.888;9.226;2023-04-05T01:45:17;155584.66;;;1.31;72.68
7940;BME280;4015;48.888;9.226;2023-04-05T01:47:42;155602.41;;;1.38;73.35
7940;BME280;4015;48.888;9.226;2023-04-05T01:50:08;155585.91;;;1.31;73.76
7940;BME280;4015;48.888;9.226;2023-04-05T01:52:33;155519.94;;;1.05;74.43
7940;BME280;4015;48.888;9.226;2023-04-05T01:54:59;155485.69;;;0.91;74.98
7940;BME280;4015;48.888;9.226;2023-04-05T01:57:24;155503.44;;;0.98;74.93
7940;BME280;4015;48.888;9.226;2023-04-05T01:59:50;155511.06;;;1.01;73.70
7940;BME280;4015;48.888;9.226;2023-04-05T02:02:15;155481.88;;;0.90;73.14
7940;BME280;4015;48.888;9.226;2023-04-05T02:04:40;155503.44;;;0.98;73.47
7940;BME280;4015;48.888;9.226;2023-04-05T02:07:06;155507.22;;;1.00;72.47
7940;BME280;4015;48.888;9.226;2023-04-05T02:09:32;155502.16;;;0.98;72.21
7940;BME280;4015;48.888;9.226;2023-04-05T02:11:57;155495.84;;;0.95;72.67
7940;BME280;4015;48.888;9.226;2023-04-05T02:14:23;155495.84;;;0.95;73.43
7940;BME280;4015;48.888;9.226;2023-04-05T02:16:49;155480.63;;;0.89;73.27
7940;BME280;4015;48.888;9.226;2023-04-05T02:19:15;155492.00;;;0.94;73.63
7940;BME280;4015;48.888;9.226;2023-04-05T02:21:50;155481.88;;;0.90;74.88
7940;BME280;4015;48.888;9.226;2023-04-05T02:24:18;155467.91;;;0.84;74.87
7940;BME280;4015;48.888;9.226;2023-04-05T02:26:43;155455.22;;;0.79;74.83
7940;BME280;4015;48.888;9.226;2023-04-05T02:29:08;155471.72;;;0.86;73.67
7940;BME280;4015;48.888;9.226;2023-04-05T02:31:34;155481.88;;;0.90;74.27
7940;BME280;4015;48.888;9.226;2023-04-05T02:33:59;155450.16;;;0.77;73.77
7940;BME280;4015;48.888;9.226;2023-04-05T02:36:25;155451.44;;;0.77;73.61
7940;BME280;4015;48.888;9.226;2023-04-05T02:38:52;155475.50;;;0.87;73.17
7940;BME280;4015;48.888;9.226;2023-04-05T02:41:18;155459.00;;;0.80;72.19
7940;BME280;4015;48.888;9.226;2023-04-05T02:43:44;155451.44;;;0.77;73.84
7940;BME280;4015;48.888;9.226;2023-04-05T02:46:10;155470.44;;;0.85;72.87
7940;BME280;4015;48.888;9.226;2023-04-05T02:48:36;155465.38;;;0.83;74.19
7940;BME280;4015;48.888;9.226;2023-04-05T02:51:01;155441.25;;;0.73;74.90
7940;BME280;4015;48.888;9.226;2023-04-05T02:53:26;155448.91;;;0.76;73.62
7940;BME280;4015;48.888;9.226;2023-04-05T02:55:53;155447.63;;;0.76;74.06
7940;BME280;4015;48.888;9.226;2023-04-05T02:58:19;155434.94;;;0.71;73.91
7940;BME280;4015;48.888;9.226;2023-04-05T03:00:46;155414.59;;;0.63;74.73
7940;BME280;4015;48.888;9.226;2023-04-05T03:03:16;155413.34;;;0.62;73.40
7940;BME280;4015;48.888;9.226;2023-04-05T03:05:41;155389.28;;;0.52;72.53
7940;BME280;4015;48.888;9.226;2023-04-05T03:08:07;155412.06;;;0.62;73.82
7940;BME280;4015;48.888;9.226;2023-04-05T03:10:34;155438.72;;;0.72;73.23
7940;BME280;4015;48.888;9.226;2023-04-05T03:13:01;155437.47;;;0.72;72.80
7940;BME280;4015;48.888;9.226;2023-04-05T03:15:26;155408.28;;;0.60;72.76
7940;BME280;4015;48.888;9.226;2023-04-05T03:17:52;155427.31;;;0.68;73.40
7940;BME280;4015;48.888;9.226;2023-04-05T03:20:17;155460.28;;;0.81;73.57
7940;BME280;4015;48.888;9.226;2023-04-05T03:22:43;155450.16;;;0.77;73.88
7940;BME280;4015;48.888;9.226;2023-04-05T03:25:09;155394.31;;;0.54;74.18
7940;BME280;4015;48.888;9.226;2023-04-05T03:27:35;155346.13;;;0.35;73.11
7940;BME280;4015;48.888;9.226;2023-04-05T03:30:00;155357.56;;;0.40;73.09
7940;BME280;4015;48.888;9.226;2023-04-05T03:32:26;155342.34;;;0.34;71.78
7940;BME280;4015;48.888;9.226;2023-04-05T03:34:51;155308.09;;;0.20;74.13
7940;BME280;4015;48.888;9.226;2023-04-05T03:37:16;155335.97;;;0.31;74.00
7940;BME280;4015;48.888;9.226;2023-04-05T03:39:42;155333.44;;;0.30;74.04
7940;BME280;4015;48.888;9.226;2023-04-05T03:42:07;155311.91;;;0.21;74.13
7940;BME280;4015;48.888;9.226;2023-04-05T03:44:32;155330.91;;;0.29;74.51
7940;BME280;4015;48.888;9.226;2023-04-05T03:46:58;155344.88;;;0.35;74.96
7940;BME280;4015;48.888;9.226;2023-04-05T03:49:23;155315.69;;;0.23;75.43
7940;BME280;4015;48.888;9.226;2023-04-05T03:51:49;155335.97;;;0.31;75.59
7940;BME280;4015;48.888;9.226;2023-04-05T03:54:14;155304.25;;;0.18;76.01
7940;BME280;4015;48.888;9.226;2023-04-05T03:56:40;155281.47;;;0.09;76.01
7940;BME280;4015;48.888;9.226;2023-04-05T03:59:05;155264.97;;;0.03;75.94
7940;BME280;4015;48.888;9.226;2023-04-05T04:01:31;155319.47;;;0.24;77.14
7940;BME280;4015;48.888;9.226;2023-04-05T04:03:56;155306.84;;;0.19;76.26
7940;BME280;4015;48.888;9.226;2023-04-05T04:06:22;155256.06;;;-0.01;77.36
7940;BME280;4015;48.888;9.226;2023-04-05T04:08:51;155259.91;;;0.01;76.74
7940;BME280;4015;48.888;9.226;2023-04-05T04:11:16;155261.19;;;0.01;77.31
7940;BME280;4015;48.888;9.226;2023-04-05T04:13:42;155292.88;;;0.14;77.41
7940;BME280;4015;48.888;9.226;2023-04-05T04:16:07;155270.03;;;0.05;78.53
7940;BME280;4015;48.888;9.226;2023-04-05T04:18:32;155268.78;;;0.04;78.24
7940;BME280;4015;48.888;9.226;2023-04-05T04:21:01;155282.72;;;0.10;77.75
7940;BME280;4015;48.888;9.226;2023-04-05T04:23:30;155294.16;;;0.14;77.51
7940;BME280;4015;48.888;9.226;2023-04-05T04:25:56;155252.28;;;-0.03;77.91
7940;BME280;4015;48.888;9.226;2023-04-05T04:28:21;155220.59;;;-0.15;78.55
7940;BME280;4015;48.888;9.226;2023-04-05T04:30:49;155244.69;;;-0.06;78.44
7940;BME280;4015;48.888;9.226;2023-04-05T04:33:15;155214.28;;;-0.18;77.72
7940;BME280;4015;48.888;9.226;2023-04-05T04:35:41;155223.13;;;-0.14;77.53
7940;BME280;4015;48.888;9.226;2023-04-05T04:38:10;155243.44;;;-0.06;77.71
7940;BME280;4015;48.888;9.226;2023-04-05T04:40:44;155253.53;;;-0.02;78.17
7940;BME280;4015;48.888;9.226;2023-04-05T04:43:14;155233.28;;;-0.10;78.17
7940;BME280;4015;48.888;9.226;2023-04-05T04:45:45;155214.28;;;-0.18;78.30
7940;BME280;4015;48.888;9.226;2023-04-05T04:48:13;155252.28;;;-0.03;77.66
7940;BME280;4015;48.888;9.226;2023-04-05T04:50:40;155262.44;;;0.02;77.64
7940;BME280;4015;48.888;9.226;2023-04-05T04:53:07;155256.06;;;-0.01;77.56
7940;BME280;4015;48.888;9.226;2023-04-05T04:55:32;155259.91;;;0.01;77.68
7940;BME280;4015;48.888;9.226;2023-04-05T04:58:00;155271.28;;;0.05;76.67
7940;BME280;4015;48.888;9.226;2023-04-05T05:00:33;155278.94;;;0.08;77.04
7940;BME280;4015;48.888;9.226;2023-04-05T05:02:58;155254.81;;;-0.02;75.83
7940;BME280;4015;48.888;9.226;2023-04-05T05:05:23;155249.75;;;-0.04;75.71
7940;BME280;4015;48.888;9.226;2023-04-05T05:07:50;155233.28;;;-0.10;75.64
7940;BME280;4015;48.888;9.226;2023-04-05T05:10:16;155256.06;;;-0.01;75.72
7940;BME280;4015;48.888;9.226;2023-04-05T05:12:43;155249.75;;;-0.04;75.28
7940;BME280;4015;48.888;9.226;2023-04-05T05:15:09;155242.13;;;-0.07;76.37
7940;BME280;4015;48.888;9.226;2023-04-05T05:17:34;155285.25;;;0.11;76.18
7940;BME280;4015;48.888;9.226;2023-04-05T05:20:00;155318.22;;;0.24;75.58
7940;BME280;4015;48.888;9.226;2023-04-05T05:22:28;155338.53;;;0.32;75.76
7940;BME280;4015;48.888;9.226;2023-04-05T05:24:53;155303.00;;;0.18;75.22
7940;BME280;4015;48.888;9.226;2023-04-05T05:27:18;155323.31;;;0.26;75.81
7940;BME280;4015;48.888;9.226;2023-04-05T05:29:45;155347.41;;;0.36;76.12
7940;BME280;4015;48.888;9.226;2023-04-05T05:32:11;155360.09;;;0.41;75.75
7940;BME280;4015;48.888;9.226;2023-04-05T05:34:40;155346.13;;;0.35;75.71
7940;BME280;4015;48.888;9.226;2023-04-05T05:37:11;155349.91;;;0.37;74.09
7940;BME280;4015;48.888;9.226;2023-04-05T05:39:37;155374.03;;;0.46;75.27
7940;BME280;4015;48.888;9.226;2023-04-05T05:42:02;155391.78;;;0.53;75.21
7940;BME280;4015;48.888;9.226;2023-04-05T05:44:28;155418.44;;;0.64;74.77
7940;BME280;4015;48.888;9.226;2023-04-05T05:46:54;155464.13;;;0.83;73.75
7940;BME280;4015;48.888;9.226;2023-04-05T05:49:20;155446.31;;;0.75;73.12
7940;BME280;4015;48.888;9.226;2023-04-05T05:51:46;155433.66;;;0.70;73.06
7940;BME280;4015;48.888;9.226;2023-04-05T05:54:11;155446.31;;;0.75;73.06
7940;BME280;4015;48.888;9.226;2023-04-05T05:56:37;155476.78;;;0.88;73.64
7940;BME280;4015;48.888;9.226;2023-04-05T05:59:02;155552.91;;;1.18;73.29
7940;BME280;4015;48.888;9.226;2023-04-05T06:01:28;155599.88;;;1.37;72.25
7940;BME280;4015;48.888;9.226;2023-04-05T06:03:54;155613.84;;;1.43;71.23
7940;BME280;4015;48.888;9.226;2023-04-05T06:06:19;155594.81;;;1.35;71.87
7940;BME280;4015;48.888;9.226;2023-04-05T06:08:45;155639.25;;;1.53;70.94
7940;BME280;4015;48.888;9.226;2023-04-05T06:11:18;155780.19;;;2.09;70.94
7940;BME280;4015;48.888;9.226;2023-04-05T06:13:44;155919.91;;;2.65;67.67
7940;BME280;4015;48.888;9.226;2023-04-05T06:16:09;156097.81;;;3.37;66.24
7940;BME280;4015;48.888;9.226;2023-04-05T06:18:35;156438.66;;;4.73;62.24
7940;BME280;4015;48.888;9.226;2023-04-05T06:21:00;156568.44;;;5.25;60.36
7940;BME280;4015;48.888;9.226;2023-04-05T06:23:25;156464.06;;;4.83;60.62
7940;BME280;4015;48.888;9.226;2023-04-05T06:25:51;156657.56;;;5.61;59.29
7940;BME280;4015;48.888;9.226;2023-04-05T06:28:16;156689.41;;;5.74;56.63
7940;BME280;4015;48.888;9.226;2023-04-05T06:30:41;156649.91;;;5.58;57.39
7940;BME280;4015;48.888;9.226;2023-04-05T06:33:07;156670.31;;;5.66;58.63
7940;BME280;4015;48.888;9.226;2023-04-05T06:35:32;156753.09;;;5.99;56.75
7940;BME280;4015;48.888;9.226;2023-04-05T06:37:57;156814.25;;;6.24;55.75
7940;BME280;4015;48.888;9.226;2023-04-05T06:40:23;156886.81;;;6.53;55.66
7940;BME280;4015;48.888;9.226;2023-04-05T06:42:48;157252.66;;;7.99;58.44
7940;BME280;4015;48.888;9.226;2023-04-05T06:45:13;157432.53;;;8.71;53.95
7940;BME280;4015;48.888;9.226;2023-04-05T06:47:39;157484.84;;;8.91;53.17
7940;BME280;4015;48.888;9.226;2023-04-05T06:50:06;157348.38;;;8.37;51.55
7940;BME280;4015;48.888;9.226;2023-04-05T06:52:32;157613.78;;;9.43;49.57
7940;BME280;4015;48.888;9.226;2023-04-05T06:54:58;157791.22;;;10.14;47.92
7940;BME280;4015;48.888;9.226;2023-04-05T06:57:24;157825.75;;;10.27;47.27
7940;BME280;4015;48.888;9.226;2023-04-05T06:59:51;157751.63;;;9.98;46.45
7940;BME280;4015;48.888;9.226;2023-04-05T07:02:16;157738.84;;;9.93;45.92
7940;BME280;4015;48.888;9.226;2023-04-05T07:04:42;157698.00;;;9.77;46.60
7940;BME280;4015;48.888;9.226;2023-04-05T07:07:07;157768.22;;;10.05;46.55
7940;BME280;4015;48.888;9.226;2023-04-05T07:09:33;157643.09;;;9.55;46.69
7940;BME280;4015;48.888;9.226;2023-04-05T07:11:59;157756.75;;;10.00;47.07
7940;BME280;4015;48.888;9.226;2023-04-05T07:14:25;157833.38;;;10.31;47.63
7940;BME280;4015;48.888;9.226;2023-04-05T07:16:50;157855.13;;;10.39;45.72
7940;BME280;4015;48.888;9.226;2023-04-05T07:19:19;157899.84;;;10.57;46.49
7940;BME280;4015;48.888;9.226;2023-04-05T07:21:44;157948.38;;;10.76;46.41
7940;BME280;4015;48.888;9.226;2023-04-05T07:24:09;157889.59;;;10.53;46.53
7940;BME280;4015;48.888;9.226;2023-04-05T07:26:35;158030.13;;;11.09;44.40
7940;BME280;4015;48.888;9.226;2023-04-05T07:29:02;158168.19;;;11.64;44.30
7940;BME280;4015;48.888;9.226;2023-04-05T07:31:28;158274.31;;;12.06;42.38
7940;BME280;4015;48.888;9.226;2023-04-05T07:33:54;158398.34;;;12.56;41.12
7940;BME280;4015;48.888;9.226;2023-04-05T07:36:19;158312.69;;;12.22;43.47
7940;BME280;4015;48.888;9.226;2023-04-05T07:38:45;158454.66;;;12.78;42.17
7940;BME280;4015;48.888;9.226;2023-04-05T07:41:10;158612.06;;;13.41;41.76
7940;BME280;4015;48.888;9.226;2023-04-05T07:43:35;158363.81;;;12.42;42.63
7940;BME280;4015;48.888;9.226;2023-04-05T07:46:02;158513.50;;;13.02;42.35
7940;BME280;4015;48.888;9.226;2023-04-05T07:48:28;158517.31;;;13.03;41.92
7940;BME280;4015;48.888;9.226;2023-04-05T07:50:53;158388.16;;;12.52;44.11
7940;BME280;4015;48.888;9.226;2023-04-05T07:53:19;158597.97;;;13.35;41.94
7940;BME280;4015;48.888;9.226;2023-04-05T07:55:44;158411.16;;;12.61;42.76
7940;BME280;4015;48.888;9.226;2023-04-05T07:58:10;158348.47;;;12.36;43.08
7940;BME280;4015;48.888;9.226;2023-04-05T08:00:36;158349.75;;;12.36;42.19
7940;BME280;4015;48.888;9.226;2023-04-05T08:03:02;158458.47;;;12.80;39.96
7940;BME280;4015;48.888;9.226;2023-04-05T08:05:28;158398.34;;;12.56;41.85
7940;BME280;4015;48.888;9.226;2023-04-05T08:07:54;158438.03;;;12.72;42.19
7940;BME280;4015;48.888;9.226;2023-04-05T08:10:22;158633.81;;;13.49;41.50
7940;BME280;4015;48.888;9.226;2023-04-05T08:12:47;158837.31;;;14.30;40.67
7940;BME280;4015;48.888;9.226;2023-04-05T08:15:12;158727.22;;;13.87;38.96
7940;BME280;4015;48.888;9.226;2023-04-05T08:17:38;158644.06;;;13.54;39.07
7940;BME280;4015;48.888;9.226;2023-04-05T08:20:03;158724.69;;;13.86;39.50
7940;BME280;4015;48.888;9.226;2023-04-05T08:22:29;159046.13;;;15.14;36.90
7940;BME280;4015;48.888;9.226;2023-04-05T08:24:54;158841.16;;;14.32;37.60
7940;BME280;4015;48.888;9.226;2023-04-05T08:27:19;158765.66;;;14.02;39.28
7940;BME280;4015;48.888;9.226;2023-04-05T08:29:45;158979.50;;;14.87;39.60
7940;BME280;4015;48.888;9.226;2023-04-05T08:32:10;159007.72;;;14.98;38.42
7940;BME280;4015;48.888;9.226;2023-04-05T08:34:35;158883.47;;;14.49;37.17
7940;BME280;4015;48.888;9.226;2023-04-05T08:37:01;158971.84;;;14.84;36.46
7940;BME280;4015;48.888;9.226;2023-04-05T08:39:26;159312.69;;;16.19;36.05
7940;BME280;4015;48.888;9.226;2023-04-05T08:42:16;159279.38;;;16.06;35.41
7940;BME280;4015;48.888;9.226;2023-04-05T08:44:43;159253.72;;;15.96;35.18
7940;BME280;4015;48.888;9.226;2023-04-05T08:47:09;159149.91;;;15.55;35.47
7940;BME280;4015;48.888;9.226;2023-04-05T08:49:43;159239.66;;;15.90;34.55
7940;BME280;4015;48.888;9.226;2023-04-05T08:52:09;159374.22;;;16.44;33.90
7940;BME280;4015;48.888;9.226;2023-04-05T08:54:34;159162.72;;;15.60;34.13
7940;BME280;4015;48.888;9.226;2023-04-05T08:57:02;159284.50;;;16.08;36.04
7940;BME280;4015;48.888;9.226;2023-04-05T08:59:31;159549.94;;;17.14;32.44
7940;BME280;4015;48.888;9.226;2023-04-05T09:01:59;159317.81;;;16.22;34.20
7940;BME280;4015;48.888;9.226;2023-04-05T09:04:28;159370.41;;;16.42;32.77
7940;BME280;4015;48.888;9.226;2023-04-05T09:07:00;159453.78;;;16.76;32.68
7940;BME280;4015;48.888;9.226;2023-04-05T09:09:31;159287.09;;;16.09;32.98
7940;BME280;4015;48.888;9.226;2023-04-05T09:11:56;159343.47;;;16.32;31.63
7940;BME280;4015;48.888;9.226;2023-04-05T09:14:23;159469.16;;;16.82;33.21
7940;BME280;4015;48.888;9.226;2023-04-05T09:16:49;159305.03;;;16.16;30.57
7940;BME280;4015;48.888;9.226;2023-04-05T09:19:15;159347.28;;;16.33;30.01
7940;BME280;4015;48.888;9.226;2023-04-05T09:22:03;159452.50;;;16.75;31.54
7940;BME280;4015;48.888;9.226;2023-04-05T09:24:39;159646.13;;;17.52;32.15
7940;BME280;4015;48.888;9.226;2023-04-05T09:27:12;159796.31;;;18.12;32.13
7940;BME280;4015;48.888;9.226;2023-04-05T09:29:39;159770.63;;;18.01;28.54
7940;BME280;4015;48.888;9.226;2023-04-05T09:32:06;159379.34;;;16.46;31.27
7940;BME280;4015;48.888;9.226;2023-04-05T09:34:33;159552.50;;;17.15;32.41
7940;BME280;4015;48.888;9.226;2023-04-05T09:37:01;159793.75;;;18.11;29.62
7940;BME280;4015;48.888;9.226;2023-04-05T09:39:30;159751.41;;;17.94;30.01
7940;BME280;4015;48.888;9.226;2023-04-05T09:44:58;159525.59;;;17.04;31.13
7940;BME280;4015;48.888;9.226;2023-04-05T09:47:28;159643.56;;;17.51;29.77
7940;BME280;4015;48.888;9.226;2023-04-05T09:49:59;159483.25;;;16.87;33.10
7940;BME280;4015;48.888;9.226;2023-04-05T09:52:29;159683.38;;;17.67;32.16
7940;BME280;4015;48.888;9.226;2023-04-05T09:55:01;159712.88;;;17.78;30.58
7940;BME280;4015;48.888;9.226;2023-04-05T09:57:28;159967.06;;;18.79;29.25
7940;BME280;4015;48.888;9.226;2023-04-05T09:59:57;159805.28;;;18.15;30.68
7940;BME280;4015;48.888;9.226;2023-04-05T10:02:23;159798.88;;;18.13;31.20
7940;BME280;4015;48.888;9.226;2023-04-05T10:04:49;160019.69;;;19.00;30.63
7940;BME280;4015;48.888;9.226;2023-04-05T10:07:16;159983.75;;;18.86;28.55
7940;BME280;4015;48.888;9.226;2023-04-05T10:09:44;159997.84;;;18.92;29.66
7940;BME280;4015;48.888;9.226;2023-04-05T10:12:15;160103.13;;;19.33;30.29
7940;BME280;4015;48.888;9.226;2023-04-05T10:14:42;159866.88;;;18.40;31.92
7940;BME280;4015;48.888;9.226;2023-04-05T10:17:11;160085.16;;;19.26;30.45
7940;BME280;4015;48.888;9.226;2023-04-05T10:25:26;160038.94;;;19.08;29.02
7940;BME280;4015;48.888;9.226;2023-04-05T10:27:54;160027.38;;;19.03;29.33
7940;BME280;4015;48.888;9.226;2023-04-05T10:30:23;160054.34;;;19.14;29.76
7940;BME280;4015;48.888;9.226;2023-04-05T10:35:54;160289.41;;;20.07;27.60
7940;BME280;4015;48.888;9.226;2023-04-05T10:38:28;160101.84;;;19.33;29.98
7940;BME280;4015;48.888;9.226;2023-04-05T10:40:56;160023.53;;;19.02;30.57
7940;BME280;4015;48.888;9.226;2023-04-05T10:43:24;159904.13;;;18.54;31.30
7940;BME280;4015;48.888;9.226;2023-04-05T10:45:52;159827.13;;;18.24;31.93
7940;BME280;4015;48.888;9.226;2023-04-05T10:48:36;160063.34;;;19.18;31.73
7940;BME280;4015;48.888;9.226;2023-04-05T10:51:04;160038.94;;;19.08;30.71
7940;BME280;4015;48.888;9.226;2023-04-05T10:53:30;160245.72;;;19.90;28.48
7940;BME280;4015;48.888;9.226;2023-04-05T10:55:57;160092.84;;;19.29;29.92
7940;BME280;4015;48.888;9.226;2023-04-05T10:58:24;159910.53;;;18.57;29.41
7940;BME280;4015;48.888;9.226;2023-04-05T11:00:51;159945.22;;;18.71;30.31
7940;BME280;4015;48.888;9.226;2023-04-05T11:03:55;160187.91;;;19.67;27.98
7940;BME280;4015;48.888;9.226;2023-04-05T11:06:30;160023.53;;;19.02;29.16
7940;BME280;4015;48.888;9.226;2023-04-05T11:08:59;160172.50;;;19.61;29.46
7940;BME280;4015;48.888;9.226;2023-04-05T11:11:25;160068.47;;;19.20;29.61
7940;BME280;4015;48.888;9.226;2023-04-05T11:16:18;160092.84;;;19.29;29.68
7940;BME280;4015;48.888;9.226;2023-04-05T11:18:45;160227.75;;;19.83;30.30
7940;BME280;4015;48.888;9.226;2023-04-05T11:21:19;160190.53;;;19.68;31.38
7940;BME280;4015;48.888;9.226;2023-04-05T11:29:11;159888.72;;;18.48;29.02
7940;BME280;4015;48.888;9.226;2023-04-05T11:31:59;160302.28;;;20.12;31.57
7940;BME280;4015;48.888;9.226;2023-04-05T11:34:34;160312.53;;;20.16;28.62
7940;BME280;4015;48.888;9.226;2023-04-05T11:37:00;160457.75;;;20.74;30.67
7940;BME280;4015;48.888;9.226;2023-04-05T11:39:26;160238.06;;;19.87;30.31
7940;BME280;4015;48.888;9.226;2023-04-05T11:44:17;160645.47;;;21.48;30.63
7940;BME280;4015;48.888;9.226;2023-04-05T11:46:44;160617.22;;;21.37;28.85
7940;BME280;4015;48.888;9.226;2023-04-05T11:49:11;160322.81;;;20.20;29.56
7940;BME280;4015;48.888;9.226;2023-04-05T11:51:39;160444.94;;;20.69;27.24
7940;BME280;4015;48.888;9.226;2023-04-05T11:54:09;160345.91;;;20.30;29.74
7940;BME280;4015;48.888;9.226;2023-04-05T11:56:35;160388.38;;;20.46;31.07
7940;BME280;4015;48.888;9.226;2023-04-05T11:59:01;160658.31;;;21.53;28.08
7940;BME280;4015;48.888;9.226;2023-04-05T12:01:27;160549.00;;;21.10;28.90
7940;BME280;4015;48.888;9.226;2023-04-05T12:03:53;160584.97;;;21.24;28.69
7940;BME280;4015;48.888;9.226;2023-04-05T12:06:21;160335.66;;;20.26;28.30
7940;BME280;4015;48.888;9.226;2023-04-05T12:08:47;160371.63;;;20.40;28.94
7940;BME280;4015;48.888;9.226;2023-04-05T12:11:28;160321.53;;;20.20;30.88
7940;BME280;4015;48.888;9.226;2023-04-05T12:13:59;160195.66;;;19.70;30.04
7940;BME280;4015;48.888;9.226;2023-04-05T12:16:25;160279.13;;;20.03;27.86
7940;BME280;4015;48.888;9.226;2023-04-05T12:18:55;160141.69;;;19.49;28.70
7940;BME280;4015;48.888;9.226;2023-04-05T12:21:21;160216.19;;;19.78;29.94
7940;BME280;4015;48.888;9.226;2023-04-05T12:23:48;160230.31;;;19.84;28.63
7940;BME280;4015;48.888;9.226;2023-04-05T12:26:14;160222.63;;;19.81;30.04
7940;BME280;4015;48.888;9.226;2023-04-05T12:28:53;160579.84;;;21.22;29.07
7940;BME280;4015;48.888;9.226;2023-04-05T12:31:43;160514.31;;;20.96;28.44
7940;BME280;4015;48.888;9.226;2023-04-05T12:34:09;160489.94;;;20.87;26.72
7940;BME280;4015;48.888;9.226;2023-04-05T12:36:35;160462.94;;;20.76;28.76
7940;BME280;4015;48.888;9.226;2023-04-05T12:39:05;160423.06;;;20.60;27.93
7940;BME280;4015;48.888;9.226;2023-04-05T12:41:32;160564.44;;;21.16;27.88
7940;BME280;4015;48.888;9.226;2023-04-05T12:43:58;160527.19;;;21.01;27.52
7940;BME280;4015;48.888;9.226;2023-04-05T12:46:46;160506.63;;;20.93;28.37
7940;BME280;4015;48.888;9.226;2023-04-05T12:49:13;160758.59;;;21.93;25.90
7940;BME280;4015;48.888;9.226;2023-04-05T12:51:49;160565.72;;;21.17;28.14
7940;BME280;4015;48.888;9.226;2023-04-05T12:54:20;160632.59;;;21.43;28.13
7940;BME280;4015;48.888;9.226;2023-04-05T12:56:49;160835.81;;;22.24;25.88
7940;BME280;4015;48.888;9.226;2023-04-05T12:59:14;160690.47;;;21.66;26.22
7940;BME280;4015;48.888;9.226;2023-04-05T13:01:39;160525.91;;;21.01;26.90
7940;BME280;4015;48.888;9.226;2023-04-05T13:04:05;160491.22;;;20.87;26.15
7940;BME280;4015;48.888;9.226;2023-04-05T13:06:30;160375.47;;;20.41;26.69
7940;BME280;4015;48.888;9.226;2023-04-05T13:08:56;160347.25;;;20.30;28.14
7940;BME280;4015;48.888;9.226;2023-04-05T13:11:22;160642.91;;;21.47;28.43
7940;BME280;4015;48.888;9.226;2023-04-05T13:13:47;160349.81;;;20.31;28.06
7940;BME280;4015;48.888;9.226;2023-04-05T13:16:12;160435.91;;;20.65;26.98
7940;BME280;4015;48.888;9.226;2023-04-05T13:18:38;160712.34;;;21.75;27.84
7940;BME280;4015;48.888;9.226;2023-04-05T13:21:03;160357.50;;;20.34;26.95
7940;BME280;4015;48.888;9.226;2023-04-05T13:23:33;160466.75;;;20.78;27.44
7940;BME280;4015;48.888;9.226;2023-04-05T13:25:59;160509.19;;;20.94;26.55
7940;BME280;4015;48.888;9.226;2023-04-05T13:28:24;160847.41;;;22.28;27.42
7940;BME280;4015;48.888;9.226;2023-04-05T13:30:50;160709.75;;;21.74;26.75
7940;BME280;4015;48.888;9.226;2023-04-05T13:33:17;160649.34;;;21.50;26.19
7940;BME280;4015;48.888;9.226;2023-04-05T13:35:42;160810.13;;;22.14;25.92
7940;BME280;4015;48.888;9.226;2023-04-05T13:38:08;160623.63;;;21.40;27.43
7940;BME280;4015;48.888;9.226;2023-04-05T13:40:33;160617.22;;;21.37;26.23
7940;BME280;4015;48.888;9.226;2023-04-05T13:42:58;160615.88;;;21.37;26.30
7940;BME280;4015;48.888;9.226;2023-04-05T13:45:24;160545.16;;;21.09;26.56